createdAt,value
2022-10-11T00:02:58.180Z,15.88
2022-10-11T00:06:04.085Z,17.15
2022-10-11T00:09:07.629Z,15.30
2022-10-11T00:12:11.448Z,15.40
2022-10-11T00:15:17.326Z,17.58
2022-10-11T00:18:21.091Z,15.57
2022-10-11T00:21:25.322Z,14.95
2022-10-11T00:24:28.874Z,19.03
2022-10-11T00:27:32.438Z,15.65
2022-10-11T00:30:35.925Z,15.18
2022-10-11T00:33:39.588Z,15.23
2022-10-11T00:36:43.065Z,14.85
2022-10-11T00:39:46.138Z,18.63
2022-10-11T00:42:49.341Z,16.27
2022-10-11T00:45:58.150Z,16.62
2022-10-11T00:49:19.750Z,22.95
2022-10-11T00:52:38.075Z,17.57
2022-10-11T00:55:51.874Z,19.62
2022-10-11T00:58:56.399Z,15.73
2022-10-11T01:01:59.835Z,18.35
2022-10-11T01:05:27.587Z,19.13
2022-10-11T01:08:27.652Z,20.55
2022-10-11T01:11:31.542Z,17.98
2022-10-11T01:14:47.902Z,20.75
2022-10-11T01:18:03.889Z,20.27
2022-10-11T01:21:26.740Z,20.48
2022-10-11T01:25:03.808Z,22.37
2022-10-11T01:28:27.212Z,21.77
2022-10-11T01:32:00.114Z,22.90
2022-10-11T01:35:42.702Z,19.87
2022-10-11T01:38:53.035Z,19.95
2022-10-11T01:42:00.772Z,23.33
2022-10-11T01:45:05.786Z,20.83
2022-10-11T01:48:13.002Z,21.58
2022-10-11T01:51:16.330Z,20.90
2022-10-11T01:55:07.684Z,27.10
2022-10-11T01:58:19.833Z,23.03
2022-10-11T02:01:38.009Z,24.87
2022-10-11T02:04:53.618Z,23.98
2022-10-11T02:08:18.085Z,23.58
2022-10-11T02:11:30.671Z,23.83
2022-10-11T02:14:41.524Z,28.90
2022-10-11T02:17:51.776Z,27.02
2022-10-11T02:21:00.850Z,33.08
2022-10-11T02:24:11.586Z,25.10
2022-10-11T02:27:17.441Z,24.30
2022-10-11T02:30:20.908Z,21.40
2022-10-11T02:33:31.524Z,24.33
2022-10-11T02:36:48.259Z,26.07
2022-10-11T02:40:04.200Z,21.75
2022-10-11T02:43:29.167Z,25.98
2022-10-11T02:46:33.765Z,29.15
2022-10-11T02:49:37.506Z,24.13
2022-10-11T02:52:40.856Z,23.10
2022-10-11T02:55:44.332Z,30.33
2022-10-11T02:58:47.796Z,26.42
2022-10-11T03:01:51.327Z,29.17
2022-10-11T03:04:54.394Z,29.08
2022-10-11T03:07:58.602Z,29.85
2022-10-11T03:11:01.379Z,23.85
2022-10-11T03:14:05.672Z,26.70
2022-10-11T03:17:34.633Z,24.98
2022-10-11T03:20:32.691Z,24.35
2022-10-11T03:23:35.789Z,22.85
2022-10-11T03:26:39.144Z,24.07
2022-10-11T03:29:42.326Z,22.73
2022-10-11T03:32:46.446Z,24.52
2022-10-11T03:35:50.337Z,23.02
2022-10-11T03:38:55.022Z,22.67
2022-10-11T03:41:58.110Z,23.38
2022-10-11T03:45:05.548Z,19.05
2022-10-11T03:48:09.526Z,17.23
2022-10-11T03:51:13.415Z,18.45
2022-10-11T03:54:16.455Z,22.00
2022-10-11T03:57:20.848Z,18.00
2022-10-11T04:00:24.195Z,17.42
2022-10-11T04:03:28.001Z,18.67
2022-10-11T04:06:31.310Z,16.87
2022-10-11T04:09:35.215Z,14.48
2022-10-11T04:12:39.283Z,16.73
2022-10-11T04:15:42.673Z,17.48
2022-10-11T04:18:45.800Z,18.57
2022-10-11T04:21:49.383Z,20.67
2022-10-11T04:24:52.416Z,24.25
2022-10-11T04:27:55.843Z,17.77
2022-10-11T04:30:59.833Z,12.90
2022-10-11T04:34:04.671Z,14.73
2022-10-11T04:37:07.841Z,15.32
2022-10-11T04:40:12.821Z,16.42
2022-10-11T04:43:17.725Z,12.85
2022-10-11T04:46:21.725Z,16.03
2022-10-11T04:49:25.034Z,13.70
2022-10-11T04:52:28.605Z,16.12
2022-10-11T04:55:31.896Z,17.45
2022-10-11T04:58:35.933Z,15.77
2022-10-11T05:01:39.401Z,14.70
2022-10-11T05:04:43.042Z,16.67
2022-10-11T05:07:46.322Z,19.10
2022-10-11T05:11:01.686Z,15.75
2022-10-11T05:14:04.715Z,24.83
2022-10-11T05:17:08.397Z,19.70
2022-10-11T05:20:12.892Z,21.73
2022-10-11T05:23:16.296Z,15.50
2022-10-11T05:26:20.663Z,20.42
2022-10-11T05:29:24.056Z,21.08
2022-10-11T05:32:28.098Z,21.67
2022-10-11T05:35:31.589Z,17.73
2022-10-11T05:38:35.577Z,18.48
2022-10-11T05:41:39.171Z,16.45
2022-10-11T05:44:51.984Z,18.33
2022-10-11T05:47:55.317Z,17.17
2022-10-11T05:51:00.415Z,13.15
2022-10-11T05:54:03.653Z,16.85
2022-10-11T05:57:06.949Z,14.63
2022-10-11T06:00:11.564Z,15.27
2022-10-11T06:03:16.996Z,15.10
2022-10-11T06:06:20.971Z,17.98
2022-10-11T06:09:24.479Z,24.12
2022-10-11T06:12:30.267Z,14.05
2022-10-11T06:15:34.275Z,12.88
2022-10-11T06:18:38.316Z,8.93
2022-10-11T06:21:41.467Z,11.40
2022-10-11T06:24:44.986Z,11.15
2022-10-11T06:27:48.032Z,13.68
2022-10-11T06:30:51.831Z,15.20
2022-10-11T06:33:55.116Z,10.97
2022-10-11T06:36:58.523Z,9.27
2022-10-11T06:40:02.445Z,14.00
2022-10-11T06:43:06.196Z,12.37
2022-10-11T06:46:09.468Z,10.35
2022-10-11T06:49:13.246Z,11.23
2022-10-11T06:52:16.719Z,10.10
2022-10-11T06:55:20.780Z,10.60
2022-10-11T06:58:24.388Z,12.52
2022-10-11T07:01:29.053Z,13.55
2022-10-11T07:04:34.071Z,10.43
2022-10-11T07:07:37.581Z,12.00
2022-10-11T07:10:41.023Z,12.15
2022-10-11T07:13:50.986Z,12.93
2022-10-11T07:16:58.793Z,8.05
2022-10-11T07:20:09.735Z,8.77
2022-10-11T07:23:12.892Z,15.48
2022-10-11T07:26:16.659Z,11.75
2022-10-11T07:29:20.414Z,9.68
2022-10-11T07:32:23.813Z,10.25
2022-10-11T07:35:26.843Z,10.47
2022-10-11T07:38:30.399Z,8.35
2022-10-11T07:41:33.912Z,9.80
2022-10-11T07:44:37.333Z,12.32
2022-10-11T07:47:40.438Z,9.95
2022-10-11T07:50:44.115Z,14.67
2022-10-11T07:53:50.140Z,14.50
2022-10-11T07:56:53.463Z,12.23
2022-10-11T07:59:56.804Z,9.30
2022-10-11T08:03:03.967Z,9.43
2022-10-11T08:06:09.949Z,7.00
2022-10-11T08:09:14.076Z,11.77
2022-10-11T08:12:18.124Z,10.82
2022-10-11T08:15:22.321Z,8.00
2022-10-11T08:18:27.041Z,7.57
2022-10-11T08:21:30.132Z,9.57
2022-10-11T08:24:38.320Z,12.68
2022-10-11T08:27:41.629Z,9.13
2022-10-11T08:30:53.991Z,7.95
2022-10-11T08:33:57.205Z,7.78
2022-10-11T08:37:00.876Z,7.67
2022-10-11T08:40:06.240Z,10.45
2022-10-11T08:43:29.589Z,9.90
2022-10-11T08:46:35.329Z,9.20
2022-10-11T08:49:40.824Z,8.43
2022-10-11T08:52:57.770Z,10.70
2022-10-11T08:56:03.352Z,13.18
2022-10-11T08:59:13.585Z,11.48
2022-10-11T09:02:26.333Z,13.95
2022-10-11T09:05:49.671Z,10.27
2022-10-11T09:09:11.632Z,10.97
2022-10-11T09:12:40.529Z,11.45
2022-10-11T09:16:19.763Z,12.13
2022-10-11T09:19:28.755Z,9.73
2022-10-11T09:22:46.157Z,11.27
2022-10-11T09:26:02.438Z,11.33
2022-10-11T09:29:29.750Z,13.23
2022-10-11T09:32:40.386Z,11.73
2022-10-11T09:35:47.912Z,9.57
2022-10-11T09:39:06.527Z,8.13
2022-10-11T09:42:12.030Z,9.50
2022-10-11T09:45:19.043Z,8.90
2022-10-11T09:48:30.769Z,9.90
2022-10-11T09:51:34.758Z,8.57
2022-10-11T09:54:49.631Z,13.20
2022-10-11T09:57:55.679Z,12.73
2022-10-11T10:01:08.519Z,10.05
2022-10-11T10:04:14.855Z,8.88
2022-10-11T10:07:18.024Z,9.13
2022-10-11T10:10:29.882Z,10.68
2022-10-11T10:13:46.731Z,10.50
2022-10-11T10:16:59.419Z,11.77
2022-10-11T10:20:05.752Z,8.05
2022-10-11T10:23:24.973Z,11.77
2022-10-11T10:26:28.089Z,7.87
2022-10-11T10:29:31.449Z,8.97
2022-10-11T10:32:47.551Z,12.98
2022-10-11T10:36:07.435Z,11.93
2022-10-11T10:39:47.910Z,9.13
2022-10-11T10:42:51.560Z,10.43
2022-10-11T10:46:13.163Z,10.90
2022-10-11T10:49:53.798Z,10.10
2022-10-11T10:53:14.576Z,9.80
2022-10-11T10:56:29.923Z,12.13
2022-10-11T10:59:46.548Z,11.48
2022-10-11T11:03:42.828Z,10.63
2022-10-11T11:06:59.684Z,11.23
2022-10-11T11:10:07.845Z,9.07
2022-10-11T11:13:23.551Z,11.88
2022-10-11T11:16:42.266Z,16.02
2022-10-11T11:20:00.889Z,9.47
2022-10-11T11:23:29.716Z,10.20
2022-10-11T11:26:48.051Z,10.85
2022-10-11T11:30:04.092Z,11.93
2022-10-11T11:33:37.116Z,11.75
2022-10-11T11:36:56.490Z,11.37
2022-10-11T11:40:15.702Z,11.20
2022-10-11T11:43:39.998Z,13.48
2022-10-11T11:46:50.647Z,11.27
2022-10-11T11:49:59.545Z,13.73
2022-10-11T11:53:08.136Z,14.37
2022-10-11T11:56:26.050Z,12.13
2022-10-11T11:59:59.589Z,13.95
2022-10-11T12:03:11.976Z,11.95
2022-10-11T12:06:16.047Z,12.68
2022-10-11T12:09:19.167Z,12.87
2022-10-11T12:12:29.358Z,16.30
2022-10-11T12:15:34.320Z,17.08
2022-10-11T12:18:56.606Z,14.20
2022-10-11T12:22:26.641Z,15.00
2022-10-11T12:25:38.387Z,12.77
2022-10-11T12:28:41.337Z,13.45
2022-10-11T12:32:11.557Z,14.77
2022-10-11T12:35:50.125Z,14.77
2022-10-11T12:39:21.383Z,12.63
2022-10-11T12:42:31.907Z,16.53
2022-10-11T12:45:35.461Z,13.25
2022-10-11T12:49:01.619Z,14.57
2022-10-11T12:52:19.436Z,13.60
2022-10-11T12:55:35.558Z,14.68
2022-10-11T12:58:46.476Z,14.50
2022-10-11T13:01:58.863Z,15.27
2022-10-11T13:05:15.640Z,12.37
2022-10-11T13:08:25.675Z,12.07
2022-10-11T13:11:33.857Z,15.60
2022-10-11T13:14:43.820Z,15.97
2022-10-11T13:17:48.919Z,15.80
2022-10-11T13:20:52.913Z,13.68
2022-10-11T13:24:00.076Z,13.35
2022-10-11T13:27:03.888Z,12.73
2022-10-11T13:30:17.005Z,24.90
2022-10-11T13:33:32.382Z,18.48
2022-10-11T13:36:36.108Z,19.85
2022-10-11T13:39:40.346Z,13.98
2022-10-11T13:42:45.033Z,15.02
2022-10-11T13:45:49.185Z,12.10
2022-10-11T13:49:05.348Z,13.75
2022-10-11T13:52:23.539Z,15.80
2022-10-11T13:55:30.613Z,15.30
2022-10-11T13:58:40.546Z,15.82
2022-10-11T14:01:47.664Z,18.50
2022-10-11T14:04:51.314Z,15.63
2022-10-11T14:07:56.084Z,15.80
2022-10-11T14:11:06.332Z,15.23
2022-10-11T14:14:35.730Z,13.82
2022-10-11T14:17:45.133Z,18.87
2022-10-11T14:20:48.570Z,15.75
2022-10-11T14:24:21.725Z,17.20
2022-10-11T14:27:27.992Z,16.95
2022-10-11T14:30:31.717Z,20.92
2022-10-11T14:33:35.332Z,14.47
2022-10-11T14:36:38.674Z,17.00
2022-10-11T14:39:42.581Z,16.40
2022-10-11T14:42:46.064Z,18.67
2022-10-11T14:45:49.113Z,15.18
2022-10-11T14:48:55.907Z,16.33
2022-10-11T14:51:59.891Z,15.23
2022-10-11T14:55:05.272Z,17.05
2022-10-11T14:58:10.436Z,20.40
2022-10-11T15:01:15.988Z,20.52
2022-10-11T15:04:23.762Z,18.17
2022-10-11T15:07:27.630Z,18.70
2022-10-11T15:10:39.378Z,19.40
2022-10-11T15:13:42.980Z,19.77
2022-10-11T15:16:46.435Z,22.67
2022-10-11T15:19:50.956Z,22.33
2022-10-11T15:22:54.758Z,20.83
2022-10-11T15:25:58.070Z,20.20
2022-10-11T15:29:01.557Z,23.95
2022-10-11T15:32:05.056Z,19.23
2022-10-11T15:35:08.426Z,20.30
2022-10-11T15:38:21.437Z,28.33
2022-10-11T15:41:24.466Z,27.15
2022-10-11T15:44:27.848Z,28.92
2022-10-11T15:47:30.890Z,23.83
2022-10-11T15:50:39.845Z,30.10
2022-10-11T15:53:42.965Z,27.73
2022-10-11T15:56:48.068Z,39.05
2022-10-11T15:59:51.049Z,32.00
2022-10-11T16:02:58.268Z,31.73
2022-10-11T16:06:05.377Z,25.97
2022-10-11T16:09:09.748Z,35.03
2022-10-11T16:12:13.052Z,29.30
2022-10-11T16:15:16.949Z,32.10
2022-10-11T16:18:22.290Z,38.10
2022-10-11T16:21:26.519Z,31.87
2022-10-11T16:24:29.886Z,33.85
2022-10-11T16:27:34.131Z,38.30
2022-10-11T16:30:45.199Z,38.15
2022-10-11T16:33:48.981Z,35.28
2022-10-11T16:36:52.390Z,34.17
2022-10-11T16:39:57.308Z,40.25
2022-10-11T16:43:07.501Z,33.15
2022-10-11T16:46:10.934Z,35.47
2022-10-11T16:49:23.512Z,42.08
2022-10-11T16:52:28.227Z,43.70
2022-10-11T16:55:31.610Z,50.72
2022-10-11T16:58:36.571Z,37.92
2022-10-11T17:01:41.036Z,42.70
2022-10-11T17:04:45.442Z,33.83
2022-10-11T17:07:48.642Z,41.17
2022-10-11T17:10:57.730Z,32.35
2022-10-11T17:14:01.870Z,37.45
2022-10-11T17:17:06.633Z,36.15
2022-10-11T17:20:10.261Z,39.70
2022-10-11T17:23:13.784Z,34.63
2022-10-11T17:26:26.471Z,40.92
2022-10-11T17:29:30.072Z,44.53
2022-10-11T17:32:33.372Z,41.15
2022-10-11T17:35:36.386Z,49.67
2022-10-11T17:38:40.248Z,56.57
2022-10-11T17:41:44.500Z,46.97
2022-10-11T17:44:53.950Z,51.45
2022-10-11T17:48:00.751Z,53.45
2022-10-11T17:51:15.095Z,56.25
2022-10-11T17:54:19.691Z,46.07
2022-10-11T17:57:26.584Z,42.10
2022-10-11T18:00:52.283Z,49.20
2022-10-11T18:04:00.830Z,50.25
2022-10-11T18:07:12.525Z,48.60
2022-10-11T18:10:30.904Z,46.57
2022-10-11T18:13:45.221Z,47.13
2022-10-11T18:17:14.392Z,46.55
2022-10-11T18:20:20.068Z,49.55
2022-10-11T18:23:27.366Z,43.47
2022-10-11T18:26:41.619Z,44.77
2022-10-11T18:30:22.307Z,45.78
2022-10-11T18:33:28.854Z,46.90
2022-10-11T18:36:47.632Z,53.50
2022-10-11T18:40:03.802Z,41.90
2022-10-11T18:43:22.286Z,44.20
2022-10-11T18:46:51.731Z,38.50
2022-10-11T18:50:11.198Z,36.60
2022-10-11T18:54:22.668Z,42.65
2022-10-11T18:57:07.771Z,40.38
2022-10-11T19:00:40.884Z,33.97
2022-10-11T19:04:10.409Z,38.95
2022-10-11T19:07:35.064Z,34.45
2022-10-11T19:10:41.063Z,36.17
2022-10-11T19:14:01.724Z,33.92
2022-10-11T19:17:23.031Z,33.73
2022-10-11T19:20:49.545Z,36.10
2022-10-11T19:23:58.834Z,33.50
2022-10-11T19:27:09.864Z,37.80
2022-10-11T19:30:28.516Z,36.35
2022-10-11T19:33:44.691Z,44.60
2022-10-11T19:37:01.191Z,42.80
2022-10-11T19:40:10.867Z,38.40
2022-10-11T19:43:17.594Z,39.00
2022-10-11T19:46:53.394Z,45.17
2022-10-11T19:49:52.442Z,44.43
2022-10-11T19:53:01.366Z,45.10
2022-10-11T19:56:27.522Z,44.15
2022-10-11T19:59:44.030Z,44.60
2022-10-11T20:02:58.889Z,43.38
2022-10-11T20:06:14.597Z,44.83
2022-10-11T20:09:40.021Z,42.83
2022-10-11T20:12:53.407Z,43.42
2022-10-11T20:16:05.719Z,44.58
2022-10-11T20:19:31.063Z,45.78
2022-10-11T20:22:38.297Z,38.20
2022-10-11T20:25:59.890Z,40.78
2022-10-11T20:29:06.007Z,35.83
2022-10-11T20:32:13.949Z,39.25
2022-10-11T20:35:26.214Z,37.25
2022-10-11T20:38:52.587Z,38.40
2022-10-11T20:42:00.059Z,37.25
2022-10-11T20:45:07.632Z,41.50
2022-10-11T20:48:13.516Z,42.35
2022-10-11T20:51:25.447Z,43.80
2022-10-11T20:54:31.764Z,47.40
2022-10-11T21:01:19.284Z,47.38
2022-10-11T21:04:29.250Z,49.22
2022-10-11T21:07:37.062Z,55.70
2022-10-11T21:11:02.629Z,54.30
2022-10-11T21:14:12.722Z,46.92
2022-10-11T21:17:17.437Z,50.17
2022-10-11T21:20:20.618Z,46.30
2022-10-11T21:23:24.250Z,56.25
2022-10-11T21:26:28.560Z,41.97
2022-10-11T21:29:31.945Z,43.08
2022-10-11T21:32:35.280Z,44.80
2022-10-11T21:35:40.302Z,45.53
2022-10-11T21:38:44.033Z,49.80
2022-10-11T21:41:47.384Z,57.07
2022-10-11T21:44:50.722Z,59.60
2022-10-11T21:47:54.269Z,62.62
2022-10-11T21:50:57.239Z,59.28
2022-10-11T21:54:01.266Z,60.33
2022-10-11T21:57:04.252Z,60.90
2022-10-11T22:00:08.407Z,61.83
2022-10-11T22:03:16.046Z,58.33
2022-10-11T22:06:19.638Z,70.07
2022-10-11T22:09:22.824Z,65.33
2022-10-11T22:12:26.131Z,69.43
2022-10-11T22:15:29.266Z,65.65
2022-10-11T22:18:33.828Z,64.85
2022-10-11T22:21:40.134Z,67.85
2022-10-11T22:24:45.927Z,71.43
2022-10-11T22:27:49.134Z,70.40
2022-10-11T22:30:52.380Z,76.75
2022-10-11T22:33:56.843Z,66.10
2022-10-11T22:37:01.317Z,69.43
2022-10-11T22:40:04.831Z,65.70
2022-10-11T22:43:09.437Z,72.57
2022-10-11T22:46:15.271Z,67.82
2022-10-11T22:49:21.166Z,74.55
2022-10-11T22:52:24.471Z,74.45
2022-10-11T22:55:29.058Z,72.23
2022-10-11T22:58:32.580Z,68.78
2022-10-11T23:01:36.585Z,65.60
2022-10-11T23:04:43.184Z,65.78
2022-10-11T23:07:48.341Z,71.57
2022-10-11T23:10:52.888Z,68.53
2022-10-11T23:13:56.183Z,67.30
2022-10-11T23:16:59.208Z,61.33
2022-10-11T23:20:02.750Z,62.20
2022-10-11T23:23:06.987Z,71.17
2022-10-11T23:26:16.479Z,65.93
2022-10-11T23:29:19.518Z,68.15
2022-10-11T23:32:23.417Z,66.18
2022-10-11T23:35:26.720Z,66.25
2022-10-11T23:38:30.003Z,62.73
2022-10-11T23:41:33.088Z,66.32
2022-10-11T23:44:36.538Z,66.72
2022-10-11T23:47:40.424Z,69.47
2022-10-11T23:50:44.130Z,66.82
2022-10-11T23:53:47.410Z,75.57
2022-10-11T23:56:50.719Z,81.28
2022-10-11T23:59:53.734Z,79.32
